Lampe, Missouri
Current Conditions -  °F | °C
As of 8:55 AM on Wednesday 26 Nov 2014 (Local Time) from KFWB Reporting Station
Light Rain Light Rain  
Wind Chill: 31°   Ceiling: 4300
Heat Index: 37°   Visibility: 8mi
Dew Point: 32°   Wind: 8mph
Humidity: 81%   Direction: 290°WNW
Pressure: 30.01"   Gusts: NA
Location:  36.56°N, 93.44°W
Report Text: KFWB 261455Z AUTO 29007KT 260V330 8SM -RA FEW028 BKN043 BKN055 03/00 A3001 RMK AO2
Loading
Personal Weather Stations






























Interactive Weather Map New forecast layout! Learn more

10-Day Weather Forecast

Advertisements
Track Severe Weather on mobile